Data for 09/21/2013

Time Sea-Level Adjusted Pressure Absolute Pressure Temperature Relative Humidity Dew Point Precipitation   
(mb) (inHg) (mb) (inHg) (C) (F) (%) (C) (F) (mm) (in)
00:05 1015 29.97 844 24.92 7.5 45.5 44 -4.1 24.7 0 0
00:10 1015 29.97 844 24.92 7.7 45.9 45 -3.5 25.6 0 0
00:15 1015 29.97 844 24.92 7.4 45.2 50 -2.2 28 0 0
00:20 1015 29.97 844 24.92 7 44.5 50 -2.8 27 0 0
00:25 1015 29.97 844 24.92 7.2 44.9 51 -2.3 27.8 0 0
00:30 1015 29.97 844 24.92 7.3 45.2 47 -3.2 26.2 0 0
00:35 1015 29.97 844 24.92 7.6 45.7 47 -3 26.6 0 0
00:40 1015 29.97 844 24.92 7.1 44.7 53 -1.8 28.7 0 0
00:45 1015 29.97 844 24.92 7.5 45.5 45 -3.7 25.4 0 0
00:50 1015 29.97 844 24.92 7.8 46 48 -2.6 27.4 0 0
00:55 1015 29.97 844 24.92 7.5 45.4 45 -3.6 25.6 0 0
01:00 1015 29.97 844 24.92 8.1 46.7 44 -3.3 26.1 0 0
01:05 1015 29.97 844 24.92 7.5 45.6 44 -3.8 25.1 0 0
01:10 1015 29.97 844 24.92 8.4 47.1 45 -2.9 26.7 0 0
01:15 1015 29.97 844 24.92 7.3 45.2 48 -2.9 26.8 0 0
01:20 1015 29.97 844 24.92 6.7 44 54 -2.1 28.2 0 0
01:25 1015 29.97 844 24.92 5.8 42.5 56 -2.2 28.1 0 0
01:30 1015 29.97 844 24.92 5.7 42.3 53 -3.2 26.2 0 0
01:35 1015 29.97 844 24.92 6.2 43.2 49 -3.8 25.2 0 0
01:40 1015 29.97 844 24.92 6.6 43.9 49 -3.4 25.8 0 0
01:45 1015 29.97 844 24.92 6.8 44.3 50 -3 26.7 0 0
01:50 1015 29.97 844 24.92 6.1 43 47 -4.4 24.1 0 0
01:55 1015 29.97 844 24.92 5.8 42.5 60 -1.2 29.8 0 0
02:00 1015 29.97 844 24.92 4 39.1 66 -1.9 28.6 0 0
02:05 1015 29.97 844 24.92 3.2 37.7 70 -1.8 28.8 0 0
02:10 1015 29.97 844 24.92 3 37.4 67 -2.5 27.5 0 0
02:15 1015 29.97 844 24.92 3.6 38.5 70 -1.3 29.7 0 0
02:20 1015 29.97 844 24.92 3.3 37.9 70 -1.6 29.1 0 0
02:25 1015 29.97 844 24.92 3.6 38.4 69 -1.6 29.1 0 0
02:30 1015 29.97 844 24.92 3.5 38.4 70 -1.5 29.4 0 0
02:35 1015 29.97 844 24.92 3.3 37.9 72 -1.3 29.6 0 0
02:40 1015 29.97 844 24.92 3.3 38 68 -2 28.5 0 0
02:45 1015 29.97 844 24.92 4.2 39.6 66 -1.6 29.1 0 0
02:50 1015 29.97 844 24.92 4.3 39.8 66 -1.6 29.2 0 0
02:55 1015 29.97 844 24.92 4.6 40.3 63 -1.7 28.9 0 0
03:00 1015 29.97 844 24.92 4.9 40.9 60 -2.1 28.2 0 0
03:05 1015 29.97 844 24.92 5.2 41.4 62 -1.5 29.3 0 0
03:10 1014 29.94 844 24.92 4.8 40.6 61 -2.1 28.3 0 0
03:15 1014 29.94 844 24.92 5.8 42.4 60 -1.5 29.4 0 0
03:20 1014 29.94 844 24.92 5.8 42.4 59 -1.5 29.3 0 0
03:25 1014 29.94 844 24.92 5.7 42.3 57 -2 28.4 0 0
03:30 1014 29.94 844 24.92 6.8 44.2 51 -2.6 27.2 0 0
03:35 1014 29.94 844 24.92 6.8 44.2 56 -1.3 29.7 0 0
03:40 1014 29.94 843 24.89 5.7 42.2 62 -1 30.1 0 0
03:45 1014 29.94 843 24.89 5.1 41.1 61 -1.8 28.8 0 0
03:50 1014 29.94 843 24.89 5.8 42.5 58 -1.7 28.9 0 0
03:55 1014 29.94 843 24.89 6 42.8 58 -1.7 28.9 0 0
04:00 1014 29.94 843 24.89 6.1 43 56 -2.1 28.3 0 0
04:05 1014 29.94 843 24.89 6.4 43.5 58 -1.3 29.7 0 0
04:10 1014 29.94 843 24.89 5.6 42 60 -1.6 29 0 0
04:15 1014 29.94 843 24.89 5.6 42 51 -3.6 25.4 0 0
04:20 1014 29.94 843 24.89 6.8 44.2 52 -2.4 27.7 0 0
04:25 1014 29.94 843 24.89 6.6 43.9 51 -2.7 27.1 0 0
04:30 1014 29.94 843 24.89 6.3 43.4 54 -2.4 27.7 0 0
04:35 1014 29.94 843 24.89 6.2 43.2 51 -3.2 26.2 0 0
04:40 1014 29.94 843 24.89 6.4 43.6 53 -2.5 27.4 0 0
04:45 1014 29.94 843 24.89 6.4 43.6 50 -3.1 26.4 0 0
04:50 1014 29.94 843 24.89 6.5 43.7 54 -2.2 28.1 0 0
04:55 1014 29.94 843 24.89 6.4 43.6 49 -3.5 25.7 0 0
05:00 1014 29.94 843 24.89 6.8 44.3 51 -2.5 27.6 0 0
05:05 1014 29.94 843 24.89 6.2 43.1 52 -2.9 26.8 0 0
05:10 1014 29.94 843 24.89 6.4 43.5 52 -2.8 27 0 0
05:15 1014 29.94 843 24.89 7.1 44.8 50 -2.7 27.2 0 0
05:20 1014 29.94 843 24.89 7.1 44.8 50 -2.7 27.2 0 0
05:25 1014 29.94 843 24.89 7.9 46.2 46 -2.9 26.8 0 0
05:30 1014 29.94 843 24.89 7.6 45.6 52 -1.5 29.2 0 0
05:35 1014 29.94 843 24.89 6.6 43.9 53 -2.2 28.1 0 0
05:40 1014 29.94 843 24.89 6.9 44.5 49 -3.1 26.5 0 0
05:45 1014 29.94 843 24.89 7.4 45.3 51 -2.1 28.2 0 0
05:50 1013 29.91 843 24.89 7.4 45.4 48 -2.9 26.8 0 0
05:55 1013 29.91 843 24.89 8.3 46.9 45 -3 26.6 0 0
06:00 1013 29.91 843 24.89 8.2 46.7 43 -3.7 25.3 0 0
06:05 1013 29.91 843 24.89 8.4 47 51 -1.1 30 0 0
06:10 1013 29.91 843 24.89 7.7 45.8 46 -3.3 26.1 0 0
06:15 1013 29.91 843 24.89 8.3 47 47 -2.4 27.7 0 0
06:20 1013 29.91 842 24.86 8 46.5 52 -1.2 29.9 0 0
06:25 1013 29.91 842 24.86 7 44.6 58 -0.6 30.9 0 0
06:30 1013 29.91 842 24.86 5.7 42.2 65 -0.3 31.4 0 0
06:35 1013 29.91 842 24.86 5.5 41.9 66 -0.4 31.3 0 0
06:40 1013 29.91 842 24.86 4.7 40.5 67 -0.9 30.5 0 0
06:45 1013 29.91 842 24.86 5.3 41.5 64 -0.9 30.3 0 0
06:50 1013 29.91 842 24.86 5.4 41.7 65 -0.7 30.7 0 0
06:55 1013 29.91 842 24.86 5.6 42 60 -1.6 29.2 0 0
07:00 1013 29.91 842 24.86 6.7 44 59 -0.8 30.6 0 0
07:05 1013 29.91 842 24.86 6.7 44.1 62 0.1 32.1 0 0
07:10 1013 29.91 842 24.86 6.7 44 58 -1.1 30 0 0
07:15 1013 29.91 842 24.86 6.9 44.5 55 -1.4 29.5 0 0
07:20 1013 29.91 842 24.86 8.1 46.5 58 0.3 32.5 0 0
07:25 1013 29.91 842 24.86 6.8 44.2 59 -0.5 31 0 0
07:30 1013 29.91 842 24.86 7.1 44.8 51 -2.4 27.7 0 0
07:35 1013 29.91 842 24.86 8.8 47.9 49 -1.3 29.6 0 0
07:40 1013 29.91 842 24.86 9.3 48.7 57 1.3 34.3 0 0
07:45 1013 29.91 842 24.86 7.9 46.1 59 0.3 32.5 0 0
07:50 1013 29.91 842 24.86 7.7 45.9 62 0.9 33.6 0 0
07:55 1013 29.91 842 24.86 8.3 46.9 56 -0.1 31.9 0 0
08:00 1013 29.91 842 24.86 9.6 49.4 53 0.6 33.1 0 0
08:05 1013 29.91 842 24.86 10.1 50.1 53 0.9 33.7 0 0
08:10 1013 29.91 842 24.86 10.6 51.1 49 0.4 32.7 0 0
08:15 1013 29.91 842 24.86 11.3 52.4 48 0.6 33.1 0 0
08:20 1013 29.91 842 24.86 11.8 53.2 47 0.8 33.5 0 0
08:25 1013 29.91 842 24.86 12.4 54.2 51 2.4 36.4 0 0
08:30 1013 29.91 842 24.86 12.6 54.6 44 0.7 33.3 0 0
08:35 1013 29.91 842 24.86 13 55.4 49 2.5 36.5 0 0
08:40 1013 29.91 842 24.86 13.3 56 46 1.9 35.4 0 0
08:45 1013 29.91 842 24.86 13.9 57 42 1.3 34.4 0 0
08:50 1013 29.91 842 24.86 14.4 57.9 38 0.2 32.4 0 0
08:55 1013 29.91 842 24.86 14.6 58.2 40 1.3 34.3 0 0
09:00 1013 29.91 842 24.86 14.8 58.6 41 1.8 35.2 0 0
09:05 1013 29.91 842 24.86 15.3 59.5 39 1.5 34.7 0 0
09:10 1013 29.91 842 24.86 15.7 60.2 41 2.6 36.6 0 0
09:15 1013 29.91 842 24.86 16.1 61.1 39 2.4 36.3 0 0
09:20 1012 29.88 842 24.86 16.3 61.4 40 2.9 37.2 0 0
09:25 1012 29.88 842 24.86 16.6 61.9 35 1.1 34.1 0 0
09:30 1012 29.88 841 24.83 16.9 62.5 33 0.6 33.1 0 0
09:35 1012 29.88 842 24.86 17.4 63.2 32 0.6 33 0 0
09:40 1012 29.88 842 24.86 17.8 64 32 0.8 33.4 0 0
09:45 1012 29.88 842 24.86 18.2 64.7 33 1.7 35.1 0 0
09:50 1012 29.88 841 24.83 18.5 65.4 32 1.7 35.1 0 0
09:55 1012 29.88 841 24.83 19 66.1 30 1.2 34.1 0 0
10:00 1012 29.88 841 24.83 19.3 66.8 31 2 35.5 0 0
10:05 1012 29.88 841 24.83 19.8 67.7 32 2.8 37 0 0
10:10 1012 29.88 841 24.83 20.2 68.4 28 1.3 34.4 0 0
10:15 1012 29.88 841 24.83 20.6 69.1 30 2.7 36.9 0 0
10:20 1012 29.88 841 24.83 21 69.7 27 1.5 34.7 0 0
10:25 1012 29.88 841 24.83 21.2 70.2 28 2.3 36.1 0 0
10:30 1012 29.88 841 24.83 21.6 70.9 28 2.4 36.3 0 0
10:35 1012 29.88 841 24.83 22 71.5 28 2.9 37.2 0 0
10:40 1012 29.88 841 24.83 22.3 72.1 23 0.6 33.1 0 0
10:45 1012 29.88 841 24.83 22.4 72.3 25 1.6 34.8 0 0
10:50 1012 29.88 841 24.83 23 73.4 30 4.7 40.5 0 0
10:55 1012 29.88 841 24.83 22 71.6 34 5.6 42.1 0 0
11:00 1012 29.88 841 24.83 21.1 70.1 36 5.7 42.3 0 0
11:05 1012 29.88 841 24.83 20.9 69.7 37 6 42.8 0 0
11:10 1012 29.88 841 24.83 21 69.9 37 5.9 42.6 0 0
11:15 1012 29.88 841 24.83 21 69.9 34 4.6 40.3 0 0
11:20 1012 29.88 841 24.83 20.9 69.6 32 3.6 38.5 0 0
11:25 1012 29.88 841 24.83 21.2 70.2 34 5.1 41.2 0 0
11:30 1012 29.88 841 24.83 21.6 70.9 31 4.2 39.5 0 0
11:35 1012 29.88 841 24.83 22.1 71.7 31 4.6 40.3 0 0
11:40 1012 29.88 841 24.83 21.7 71 34 5.4 41.6 0 0
11:45 1011 29.85 841 24.83 21.5 70.8 30 3.6 38.5 0 0
11:50 1012 29.88 841 24.83 21.8 71.2 31 4.2 39.5 0 0
11:55 1011 29.85 841 24.83 22.7 72.8 25 2.1 35.8 0 0
12:00 1011 29.85 841 24.83 24 75.1 22 1.2 34.1 0 0
12:05 1011 29.85 841 24.83 24.6 76.2 27 4.7 40.4 0 0
12:10 1011 29.85 841 24.83 24.6 76.2 21 0.8 33.5 0 0
12:15 1011 29.85 841 24.83 24.7 76.4 25 3.5 38.4 0 0
12:20 1011 29.85 841 24.83 24.7 76.4 20 0.5 32.9 0 0
12:25 1011 29.85 841 24.83 24.4 75.8 21 0.6 33.1 0 0
12:30 1011 29.85 840 24.81 24.5 76.1 21 1.1 34 0 0
12:35 1011 29.85 840 24.81 24.6 76.2 19 -0.5 31.2 0 0
12:40 1011 29.85 840 24.81 24.5 76.1 21 1.2 34.2 0 0
12:45 1011 29.85 840 24.81 24.6 76.2 23 2.1 35.7 0 0
12:50 1011 29.85 840 24.81 24.8 76.7 23 2.3 36.1 0 0
12:55 1011 29.85 840 24.81 24.9 76.9 18 -0.5 31.1 0 0
13:00 1011 29.85 840 24.81 24.3 75.8 20 -0.2 31.7 0 0
13:05 1011 29.85 840 24.81 24.6 76.3 20 0.4 32.7 0 0
13:10 1011 29.85 840 24.81 23.8 74.8 33 6.6 43.9 0 0
13:15 1011 29.85 840 24.81 22.9 73.2 25 2.2 36 0 0
13:20 1011 29.85 840 24.81 22 71.6 33 5.3 41.6 0 0
13:25 1011 29.85 840 24.81 21.6 70.9 29 2.9 37.3 0 0
13:30 1011 29.85 840 24.81 22.2 72 32 5.1 41.2 0 0
13:35 1011 29.85 840 24.81 22.8 73.1 28 3.7 38.7 0 0
13:40 1011 29.85 840 24.81 22.6 72.7 31 4.8 40.7 0 0
13:45 1011 29.85 840 24.81 22.7 72.9 29 4.2 39.6 0 0
13:50 1011 29.85 840 24.81 23.6 74.4 21 0.3 32.6 0 0
13:55 1010 29.83 840 24.81 24.4 75.9 22 1.4 34.5 0 0
14:00 1010 29.83 840 24.81 25.2 77.3 26 4.5 40.2 0 0
14:05 1010 29.83 840 24.81 24.5 76.1 22 1.7 35 0 0
14:10 1010 29.83 839 24.78 25.1 77.2 18 -0.8 30.6 0 0
14:15 1010 29.83 839 24.78 25.5 77.9 21 1.6 34.8 0 0
14:20 1010 29.83 839 24.78 25.8 78.4 23 3.4 38 0 0
14:25 1010 29.83 839 24.78 25.7 78.3 18 -0.1 31.8 0 0
14:30 1010 29.83 839 24.78 25.5 77.9 22 2.2 36 0 0
14:35 1010 29.83 839 24.78 25.6 78 21 1.7 35.1 0 0
14:40 1010 29.83 839 24.78 25.5 77.9 20 0.9 33.7 0 0
14:45 1010 29.83 839 24.78 25.6 78 19 0.8 33.5 0 0
14:50 1010 29.83 839 24.78 25.4 77.7 20 0.9 33.7 0 0
14:55 1010 29.83 839 24.78 25.3 77.6 19 0.6 33.1 0 0
15:00 1010 29.83 839 24.78 25.2 77.3 19 0.2 32.4 0 0
15:05 1010 29.83 839 24.78 25 77 21 1.6 34.8 0 0
15:10 1010 29.83 839 24.78 25.2 77.4 19 0 32 0 0
15:15 1010 29.83 839 24.78 25.2 77.3 18 -0.3 31.5 0 0
15:20 1010 29.83 839 24.78 24 75.1 23 1.9 35.5 0 0
15:25 1010 29.83 839 24.78 24.7 76.5 21 1 33.7 0 0
15:30 1010 29.83 839 24.78 24.5 76.1 20 -0 32 0 0
15:35 1010 29.83 839 24.78 24.8 76.6 25 3.6 38.5 0 0
15:40 1009 29.8 839 24.78 24.1 75.4 23 1.9 35.4 0 0
15:45 1009 29.8 839 24.78 23.9 75.1 19 -0.8 30.6 0 0
15:50 1009 29.8 839 24.78 24.4 76 25 3.2 37.8 0 0
15:55 1009 29.8 839 24.78 23.6 74.4 26 2.9 37.3 0 0
16:00 1009 29.8 839 24.78 22.8 73 26 2.5 36.5 0 0
16:05 1009 29.8 838 24.75 22.4 72.3 28 3.3 38 0 0
16:10 1009 29.8 838 24.75 21.9 71.4 24 0.4 32.8 0 0
16:15 1009 29.8 838 24.75 22.4 72.3 24 1.1 33.9 0 0
16:20 1009 29.8 838 24.75 22.3 72.2 26 2.2 36 0 0
16:25 1009 29.8 838 24.75 22 71.6 23 0.3 32.6 0 0
16:30 1009 29.8 838 24.75 22.1 71.8 25 1.6 34.8 0 0
16:35 1009 29.8 838 24.75 21.9 71.5 24 0.7 33.3 0 0
16:40 1009 29.8 838 24.75 22 71.6 22 -0.7 30.7 0 0
16:45 1009 29.8 838 24.75 22.3 72.1 24 0.7 33.3 0 0
16:50 1009 29.8 838 24.75 21.8 71.2 20 -1.8 28.8 0 0
16:55 1009 29.8 838 24.75 22 71.6 23 0.3 32.5 0 0
17:00 1009 29.8 838 24.75 21.6 70.8 24 0.4 32.6 0 0
17:05 1009 29.8 838 24.75 21.2 70.2 24 -0.1 31.8 0 0
17:10 1009 29.8 838 24.75 21.5 70.6 22 -0.7 30.7 0 0
17:15 1009 29.8 838 24.75 21.9 71.4 21 -1.1 30.1 0 0
17:20 1009 29.8 838 24.75 21.7 71.1 24 0.5 32.9 0 0
17:25 1009 29.8 838 24.75 21.3 70.4 26 1.3 34.3 0 0
17:30 1009 29.8 838 24.75 21.1 69.9 25 0.3 32.5 0 0
17:35 1009 29.8 838 24.75 21.2 70.2 24 -0.3 31.5 0 0
17:40 1009 29.8 838 24.75 21.5 70.7 23 -0.4 31.3 0 0
17:45 1009 29.8 838 24.75 21.7 71 21 -1.4 29.5 0 0
17:50 1009 29.8 838 24.75 21.7 71 24 0.5 33 0 0
17:55 1009 29.8 838 24.75 21.5 70.8 24 0.5 32.8 0 0
18:00 1009 29.8 838 24.75 21.4 70.6 24 0.2 32.4 0 0
18:05 1009 29.8 838 24.75 21.5 70.7 21 -1.3 29.6 0 0
18:10 1009 29.8 838 24.75 21.7 71.1 22 -1 30.2 0 0
18:15 1009 29.8 838 24.75 21.8 71.3 19 -2.4 27.7 0 0
18:20 1009 29.8 838 24.75 21.8 71.3 23 -0 31.9 0 0
18:25 1009 29.8 838 24.75 21.2 70.2 21 -1.8 28.8 0 0
18:30 1009 29.8 838 24.75 21.4 70.5 21 -1.6 29.1 0 0
18:35 1009 29.8 838 24.75 21.6 70.9 23 -0.4 31.3 0 0
18:40 1009 29.8 838 24.75 21.1 70.1 23 -0.6 30.9 0 0
18:45 1009 29.8 838 24.75 20.9 69.5 26 0.7 33.3 0 0
18:50 1009 29.8 838 24.75 20.3 68.5 23 -1.4 29.5 0 0
18:55 1009 29.8 838 24.75 20.4 68.8 27 0.7 33.3 0 0
19:00 1009 29.8 838 24.75 19.7 67.4 28 0.7 33.2 0 0
19:05 1009 29.8 838 24.75 19.2 66.5 26 -0.6 30.9 0 0
19:10 1009 29.8 838 24.75 19.1 66.4 29 1 33.8 0 0
19:15 1009 29.8 838 24.75 18.5 65.4 28 -0 32 0 0
19:20 1009 29.8 838 24.75 18.1 64.6 30 0.2 32.4 0 0
19:25 1009 29.8 838 24.75 17.7 63.9 31 0.3 32.5 0 0
19:30 1009 29.8 838 24.75 17.4 63.2 31 0 32 0 0
19:35 1009 29.8 838 24.75 16.7 62.1 32 0.1 32.2 0 0
19:40 1009 29.8 838 24.75 16.1 61.1 35 0.9 33.6 0 0
19:45 1009 29.8 838 24.75 16.3 61.3 33 -0.1 31.8 0 0
19:50 1009 29.8 838 24.75 16.5 61.8 35 1.3 34.3 0 0
19:55 1009 29.8 838 24.75 15.6 60 37 1 33.7 0 0
20:00 1009 29.8 838 24.75 14.8 58.6 38 0.8 33.4 0 0
20:05 1009 29.8 838 24.75 15.1 59.1 36 0.1 32.2 0 0
20:10 1009 29.8 838 24.75 16.1 61 32 -0.6 31 0 0
20:15 1009 29.8 838 24.75 16 60.8 36 0.9 33.6 0 0
20:20 1009 29.8 838 24.75 15.2 59.3 38 1.1 33.9 0 0
20:25 1009 29.8 838 24.75 15.2 59.3 38 1.2 34.1 0 0
20:30 1009 29.8 838 24.75 15.2 59.3 42 2.4 36.4 0 0
20:35 1009 29.8 838 24.75 14.6 58.3 42 1.8 35.3 0 0
20:40 1009 29.8 838 24.75 14.8 58.7 40 1.3 34.3 0 0
20:45 1009 29.8 838 24.75 15 59 41 2 35.5 0 0
20:50 1009 29.8 838 24.75 14.2 57.6 46 3 37.3 0 0
20:55 1009 29.8 838 24.75 13.4 56.1 48 2.6 36.6 0 0
21:00 1009 29.8 838 24.75 13.6 56.4 45 1.8 35.3 0 0
21:05 1009 29.8 838 24.75 13.8 56.8 48 2.9 37.2 0 0
21:10 1009 29.8 838 24.75 13.5 56.3 47 2.4 36.3 0 0
21:15 1009 29.8 838 24.75 13.8 56.8 46 2.5 36.5 0 0
21:20 1009 29.8 838 24.75 13.8 56.8 44 1.9 35.4 0 0
21:25 1009 29.8 838 24.75 14.1 57.3 44 2.2 36 0 0
21:30 1009 29.8 838 24.75 13.8 56.8 45 2.1 35.9 0 0
21:35 1009 29.8 838 24.75 13.8 56.9 43 1.7 35.1 0 0
21:40 1009 29.8 838 24.75 13.8 56.9 46 2.4 36.4 0 0
21:45 1009 29.8 838 24.75 13.5 56.4 46 2.2 35.9 0 0
21:50 1009 29.8 838 24.75 13.2 55.7 51 3.2 37.8 0 0
21:55 1009 29.8 838 24.75 12.5 54.4 52 2.8 37.1 0 0
22:00 1009 29.8 838 24.75 12.8 55 44 1 33.8 0 0
22:05 1009 29.8 838 24.75 13.8 56.9 41 0.9 33.6 0 0
22:10 1009 29.8 838 24.75 14.4 57.9 40 1 33.9 0 0
22:15 1009 29.8 838 24.75 14.2 57.5 42 1.6 34.8 0 0
22:20 1009 29.8 838 24.75 13.8 56.9 42 1.3 34.3 0 0
22:25 1009 29.8 838 24.75 13.9 57 43 1.7 35 0 0
22:30 1009 29.8 838 24.75 14.3 57.8 35 -0.7 30.7 0 0
22:35 1009 29.8 838 24.75 15.5 59.9 34 -0.4 31.3 0 0
22:40 1009 29.8 838 24.75 15.6 60.1 36 0.6 33.1 0 0
22:45 1009 29.8 838 24.75 15 58.9 36 0 32.1 0 0
22:50 1009 29.8 838 24.75 15 58.9 36 0.2 32.4 0 0
22:55 1009 29.8 838 24.75 14.8 58.7 37 0.4 32.8 0 0
23:00 1008 29.77 838 24.75 14.9 58.9 38 0.6 33.2 0 0
23:05 1008 29.77 838 24.75 14.8 58.7 37 0.5 32.9 0 0
23:10 1008 29.77 838 24.75 14.4 57.9 40 1 33.9 0 0
23:15 1008 29.77 837 24.72 14.1 57.3 40 0.9 33.6 0 0
23:20 1008 29.77 837 24.72 14.1 57.4 40 0.8 33.4 0 0
23:25 1008 29.77 837 24.72 14.2 57.6 39 0.5 32.9 0 0
23:30 1008 29.77 837 24.72 14.5 58 38 0.3 32.5 0 0
23:35 1008 29.77 837 24.72 14.5 58.1 39 0.8 33.5 0 0
23:40 1008 29.77 837 24.72 14.2 57.5 39 0.5 32.9 0 0
23:45 1008 29.77 837 24.72 14.4 58 35 -0.7 30.8 0 0
23:50 1008 29.77 837 24.72 15.2 59.3 37 0.6 33.1 0 0
23:55 1008 29.77 837 24.72 14.5 58 39 0.9 33.7 0 0
24:00 1008 29.77 837 24.72 14.2 57.6 39 0.7 33.2 0 0